East Corinth, ME

7:53 PM EST on December 05, 2016 (GMT -0500)
KMEGARLA2 | | Change Station

Elev 410 ft 45.02 °N, 69.13 °W | Updated 7 seconds ago

Light Snow
Light Snow Mist
25.0 °F
Feels Like 25 °F
N
2.0
Wind Variable Wind from NE
Gusts 3.0 mph

Today
High -- | Low -- °F
--% Chance of Precip.
Yesterday
High -- | Low -- °F
Precip. -- in
Pressure 29.91 in
Visibility 1.0 miles
Clouds Overcast 1100 ft
Windchill 25 °F
Dew Point 24 °F
Humidity 94%
Rainfall 0.00 in
Snow Depth Not available.
6:58 AM 3:54 PM
Waxing Crescent, 36% visible
SPECI KBGR 060027Z 34005KT 1SM R15/P6000FT -SN BR OVC011 M03/M04 A2991 RMK AO2 SFC VIS 2 P0001 T10331039
Pressure 29.91 in
Visibility 1.0 miles
Clouds Overcast 1100 ft
Windchill 25 °F
Dew Point 24 °F
Humidity 94%
Rainfall 0.00 in
Snow Depth Not available.
6:58 AM 3:54 PM
Waxing Crescent, 36% visible
SPECI KBGR 060027Z 34005KT 1SM R15/P6000FT -SN BR OVC011 M03/M04 A2991 RMK AO2 SFC VIS 2 P0001 T10331039

10-Day Weather Forecast

Almanac

Astronomy

Dec. 05, 2016 Rise Set
Actual Time
Civil Twilight
Nautical Twilight
Astronomical Twilight
Moon
Length of Visible Light
Length of Day
Tomorrow will be .
, % of the Moon is Illuminated

Today's Extremes

State Highs State Lows

Community

WunderPhotos

Upload Photos

1,955,870 photos uploaded!

WunderBlog® & News

Nearby

Air Quality

  Air Quality AQ Index Pollutant
Not available.

Snow Depth

Station Depth Elevation

Earthquake Activity

City Distance Mag. Time & Date
Minimum magnitude displayed is 2.5.

Coastal Water Temperatures

Place Temperature

Stations

Nearby Weather Stations

Station Location Temp. Windchill Dew Point Humidity Wind Precip. Elev Updated Type
                   

Watches & Warnings

There are currently no watches in effect.